ADDS METAR Data INFO
IDs: Format: Raw Decoded Include TAF

Data at: 2342 UTC 15 Dec 2017

KCNM 152253Z AUTO 15012KT 10SM CLR 12/M03 A3015 RMK AO2 SLP201 T01171033
KCNM 152153Z AUTO 16013KT 10SM CLR 12/M04 A3016 RMK AO2 SLP204 T01221039
KCNM 152053Z AUTO 17010G18KT 10SM CLR 12/M03 A3019 RMK AO2 SLP215 T01171033 56041
KCNM 151953Z AUTO 18013KT 10SM CLR 11/M03 A3022 RMK AO2 SLP227 T01111028
KCNM 151853Z AUTO 18008KT 10SM CLR 10/M03 A3028 RMK AO2 SLP244 T01001028
KCNM 151753Z AUTO 14009KT 10SM CLR 08/M01 A3032 RMK AO2 SLP262 T00831011 10083 21050 58012
KCNM 151653Z AUTO 12005KT 10SM CLR 06/M02 A3035 RMK AO2 SLP275 T00561022
KCNM 151553Z AUTO 00000KT 10SM CLR 03/M02 A3035 RMK AO2 SLP276 T00331022
KCNM 151453Z AUTO 00000KT 10SM CLR M01/M03 A3036 RMK AO2 SLP283 T10111033 51005
KCNM 151353Z AUTO 28006KT 10SM CLR M04/M06 A3036 RMK AO2 SLP285 T10441056
KCNM 151253Z AUTO 29004KT 10SM CLR M04/M06 A3035 RMK AO2 SLP281 T10441056
KCNM 151153Z AUTO 26007KT 10SM CLR M03/M05 A3034 RMK AO2 SLP272 T10281050 10017 21039 52003
KCNM 151053Z AUTO 25007KT 10SM CLR M03/M05 A3034 RMK AO2 SLP267 T10331050
KCNM 150953Z AUTO 27006KT 10SM CLR M03/M05 A3034 RMK AO2 SLP265 T10281050
KCNM 150853Z AUTO 27006KT 10SM CLR M02/M05 A3034 RMK AO2 SLP262 T10171050 53005
KCNM 150753Z AUTO 26004KT 10SM CLR M02/M06 A3032 RMK AO2 SLP260 T10221056
KCNM 150653Z AUTO 30006KT 10SM CLR 00/M06 A3032 RMK AO2 SLP257 T00001056 401390000
KCNM 150553Z AUTO 32008KT 10SM CLR 01/M06 A3032 RMK AO2 SLP259 T00061056 10094 20000 51027
KCNM 150453Z AUTO 30004KT 10SM CLR 01/M06 A3030 RMK AO2 SLP252 T00111056
KCNM 150353Z AUTO 00000KT 10SM CLR 02/M06 A3026 RMK AO2 SLP240 T00171056
KCNM 150253Z AUTO 04003KT 10SM CLR 04/M06 A3023 RMK AO2 SLP232 T00391056 53036
KCNM 150153Z AUTO 06005KT 10SM CLR 05/M06 A3019 RMK AO2 SLP219 T00501056
KCNM 150053Z AUTO 04007KT 10SM CLR 07/M05 A3015 RMK AO2 SLP203 T00671050
KCNM 142353Z AUTO 06005KT 10SM CLR 09/M05 A3012 RMK AO2 SLP186 T00941050 10139 20094 53005
KCNM 142253Z AUTO 05008KT 10SM CLR 13/M06 A3010 RMK AO2 SLP180 T01281056
KCNM 142153Z AUTO 03007KT 10SM CLR 13/M06 A3010 RMK AO2 SLP178 T01331056
KCNM 142053Z AUTO 05011G15KT 10SM CLR 13/M06 A3010 RMK AO2 SLP177 T01331056 56015
KCNM 141953Z AUTO 34010KT 10SM CLR 12/M06 A3011 RMK AO2 SLP178 T01221061
KCNM 141853Z AUTO 33009KT 10SM CLR 11/M06 A3013 RMK AO2 SLP186 T01061061
KCNM 141753Z AUTO 36009KT 10SM CLR 09/M07 A3015 RMK AO2 SLP194 T00941067 10094 20000 51018
KCNM 141653Z AUTO 34009KT 10SM CLR 08/M07 A3015 RMK AO2 SLP197 T00831072
KCNM 141553Z AUTO 32009KT 10SM CLR 07/M08 A3012 RMK AO2 SLP192 T00671078
KCNM 141453Z AUTO 31010KT 10SM CLR 04/M09 A3009 RMK AO2 SLP180 T00391089 53026
KCNM 141353Z AUTO 33009KT 10SM CLR 02/M09 A3007 RMK AO2 SLP174 T00171094
KCNM 141253Z AUTO 34007KT 10SM CLR 01/M08 A3003 RMK AO2 SLP157 T00061078
KCNM 141153Z AUTO 32009KT 10SM CLR 02/M08 A3001 RMK AO2 SLP144 T00221078 10061 20006 53013